Time;durP1;ratioP1;P1;durP2;ratioP2;P2;SDS_P1;SDS_P2;PMS_P1;PMS_P2;Temp;Humidity;BMP_temperature;BMP_pressure;BME280_temperature;BME280_humidity;BME280_pressure;Samples;Min_cycle;Max_cycle;Signal;HPM_P1;HPM_P2
2024/01/20 00:01:25;;;;;;;8.93;4.82;;;;;;;-3.60;100.00;99362.91;4484413;32;20570;-75
2024/01/20 00:03:53;;;;;;;7.53;3.30;;;;;;;-3.62;100.00;99357.00;4484583;31;20088;-75
2024/01/20 00:06:21;;;;;;;5.60;3.37;;;;;;;-3.64;100.00;99368.97;4484765;31;20203;-75
2024/01/20 00:08:49;;;;;;;8.52;4.85;;;;;;;-3.61;100.00;99357.84;4484380;32;20148;-75
2024/01/20 00:11:17;;;;;;;8.75;3.60;;;;;;;-3.61;100.00;99384.28;4484488;31;20127;-75
2024/01/20 00:13:44;;;;;;;11.32;4.85;;;;;;;-3.62;100.00;99377.50;4484449;31;20144;-75
2024/01/20 00:16:12;;;;;;;21.02;4.32;;;;;;;-3.61;100.00;99398.81;4484259;31;20160;-75
2024/01/20 00:18:40;;;;;;;9.93;4.00;;;;;;;-3.62;100.00;99384.31;4491247;31;20148;-75
2024/01/20 00:21:07;;;;;;;10.88;3.92;;;;;;;-3.66;100.00;99382.72;4500248;31;20122;-75
2024/01/20 00:23:37;;;;;;;9.43;3.47;;;;;;;-3.67;100.00;99379.28;4499972;31;20160;-75
2024/01/20 00:26:05;;;;;;;7.87;3.65;;;;;;;-3.68;100.00;99385.31;4499755;31;20097;-75
2024/01/20 00:28:32;;;;;;;6.87;3.28;;;;;;;-3.68;100.00;99392.13;4500130;31;20100;-75
2024/01/20 00:30:59;;;;;;;7.37;3.80;;;;;;;-3.65;100.00;99384.37;4488689;31;20462;-75
2024/01/20 00:33:27;;;;;;;9.07;4.40;;;;;;;-3.67;100.00;99388.69;4484211;31;20155;-75
2024/01/20 00:35:55;;;;;;;8.23;3.67;;;;;;;-3.68;100.00;99379.31;4483843;31;20157;-75
2024/01/20 00:38:24;;;;;;;7.28;3.53;;;;;;;-3.64;100.00;99398.87;4484112;31;20381;-75
2024/01/20 00:40:52;;;;;;;10.23;4.43;;;;;;;-3.59;100.00;99394.47;4484058;31;20426;-75
2024/01/20 00:43:19;;;;;;;11.00;4.87;;;;;;;-3.65;100.00;99395.47;4484272;31;20096;-75
2024/01/20 00:45:47;;;;;;;9.27;4.18;;;;;;;-3.67;100.00;99398.94;4483770;32;20088;-75
2024/01/20 00:48:14;;;;;;;8.13;3.58;;;;;;;-3.69;100.00;99408.34;4484036;32;20092;-75
2024/01/20 00:50:42;;;;;;;7.82;4.50;;;;;;;-3.74;100.00;99400.75;4483825;32;20277;-75
2024/01/20 00:53:10;;;;;;;12.00;4.22;;;;;;;-3.77;100.00;99404.25;4484027;31;20080;-75
2024/01/20 00:55:38;;;;;;;6.80;3.95;;;;;;;-3.81;100.00;99410.31;4483940;31;20118;-75
2024/01/20 00:58:05;;;;;;;7.65;3.78;;;;;;;-3.83;100.00;99411.19;4483995;31;20111;-75
2024/01/20 01:00:33;;;;;;;8.00;4.10;;;;;;;-3.86;100.00;99424.91;4483849;32;20156;-75
2024/01/20 01:03:00;;;;;;;10.07;4.25;;;;;;;-3.86;100.00;99437.72;4483766;31;20518;-75
2024/01/20 01:05:28;;;;;;;8.75;4.20;;;;;;;-3.80;100.00;99426.50;4484003;31;20119;-75
2024/01/20 01:07:58;;;;;;;8.93;4.15;;;;;;;-3.86;100.00;99441.97;4484675;31;20152;-75
2024/01/20 01:10:25;;;;;;;8.90;3.78;;;;;;;-3.83;100.00;99444.47;4485951;31;20077;-75
2024/01/20 01:12:53;;;;;;;10.38;4.25;;;;;;;-3.87;100.00;99441.16;4486075;31;20164;-75
2024/01/20 01:15:20;;;;;;;12.25;3.70;;;;;;;-3.88;100.00;99454.81;4486054;31;20092;-75
2024/01/20 01:17:47;;;;;;;17.50;5.30;;;;;;;-3.88;100.00;99447.13;4486898;31;20159;-75
2024/01/20 01:20:15;;;;;;;7.57;3.30;;;;;;;-3.89;100.00;99459.97;4501566;31;20112;-75
2024/01/20 01:22:42;;;;;;;8.10;3.85;;;;;;;-3.86;100.00;99463.31;4501545;31;20126;-75
2024/01/20 01:25:10;;;;;;;10.20;4.05;;;;;;;-3.93;100.00;99474.53;4501730;31;20533;-75
2024/01/20 01:27:38;;;;;;;11.38;4.62;;;;;;;-3.94;100.00;99478.81;4501476;31;20100;-75
2024/01/20 01:30:06;;;;;;;11.07;4.85;;;;;;;-4.01;100.00;99474.69;4495935;31;20096;-75
2024/01/20 01:32:33;;;;;;;6.87;3.60;;;;;;;-4.06;100.00;99478.19;4485676;31;20092;-75
2024/01/20 01:35:03;;;;;;;11.75;3.28;;;;;;;-4.09;100.00;99473.97;4485552;31;20097;-75
2024/01/20 01:37:30;;;;;;;15.27;4.28;;;;;;;-4.18;100.00;99467.31;4485559;31;20583;-75
2024/01/20 01:39:58;;;;;;;8.43;3.40;;;;;;;-4.19;100.00;99468.19;4485579;31;20443;-75
2024/01/20 01:42:26;;;;;;;10.90;5.35;;;;;;;-4.19;100.00;99459.66;4485437;31;20160;-75
2024/01/20 01:44:54;;;;;;;8.77;3.67;;;;;;;-4.22;100.00;99458.00;4485694;31;20097;-75
2024/01/20 01:47:22;;;;;;;8.70;4.40;;;;;;;-4.15;100.00;99461.28;4485423;31;20223;-75
2024/01/20 01:49:50;;;;;;;11.12;4.47;;;;;;;-4.16;100.00;99470.69;4484429;32;20096;-75
2024/01/20 01:52:17;;;;;;;10.25;3.62;;;;;;;-4.11;100.00;99468.88;4484201;32;20177;-75
2024/01/20 01:54:45;;;;;;;8.52;3.67;;;;;;;-4.10;100.00;99470.56;4485632;31;20135;-75
2024/01/20 01:57:14;;;;;;;8.90;4.53;;;;;;;-4.14;100.00;99460.41;4485636;31;20139;-75
2024/01/20 01:59:42;;;;;;;6.37;3.50;;;;;;;-4.12;100.00;99456.09;4484262;32;20101;-75
2024/01/20 02:02:09;;;;;;;7.72;4.28;;;;;;;-4.04;100.00;99469.63;4484408;32;20096;-75
2024/01/20 02:04:37;;;;;;;10.45;4.28;;;;;;;-4.01;100.00;99473.81;4485673;31;20118;-75
2024/01/20 02:07:05;;;;;;;13.02;5.12;;;;;;;-3.98;100.00;99481.44;4485292;32;20080;-75
2024/01/20 02:09:32;;;;;;;11.15;4.95;;;;;;;-4.06;100.00;99483.31;4485328;32;20096;-75
2024/01/20 02:12:00;;;;;;;14.10;3.42;;;;;;;-4.07;100.00;99479.06;4484234;32;20593;-75
2024/01/20 02:14:28;;;;;;;7.15;4.57;;;;;;;-4.08;100.00;99482.50;4485594;31;20208;-75
2024/01/20 02:16:56;;;;;;;10.70;3.85;;;;;;;-4.13;100.00;99485.97;4485556;31;20176;-75
2024/01/20 02:19:23;;;;;;;11.73;4.55;;;;;;;-4.12;100.00;99487.69;4496764;31;20092;-75
2024/01/20 02:21:51;;;;;;;10.50;4.10;;;;;;;-4.11;100.00;99499.56;4501007;31;20519;-75
2024/01/20 02:24:19;;;;;;;13.52;4.35;;;;;;;-4.17;100.00;99488.63;4501067;31;20172;-75
2024/01/20 02:26:46;;;;;;;5.03;3.60;;;;;;;-4.21;100.00;99485.28;4501001;31;20114;-75
2024/01/20 02:29:15;;;;;;;11.75;3.08;;;;;;;-4.12;100.00;99489.38;4500729;31;20525;-75
2024/01/20 02:31:43;;;;;;;6.28;3.95;;;;;;;-4.07;100.00;99499.53;4485457;32;20131;-75
2024/01/20 02:34:10;;;;;;;9.65;3.55;;;;;;;-4.04;100.00;99508.00;4485423;31;20167;-75
2024/01/20 02:36:39;;;;;;;6.20;3.05;;;;;;;-4.04;100.00;99504.59;4485021;31;20159;-75
2024/01/20 02:39:07;;;;;;;9.32;4.47;;;;;;;-4.02;100.00;99513.09;4485095;31;20120;-75
2024/01/20 02:41:34;;;;;;;9.45;4.03;;;;;;;-4.04;100.00;99515.69;4485241;31;20118;-75
2024/01/20 02:44:03;;;;;;;6.47;3.08;;;;;;;-4.02;100.00;99519.06;4485263;31;20485;-75
2024/01/20 02:46:30;;;;;;;7.85;3.95;;;;;;;-4.02;100.00;99513.09;4485260;31;20118;-75
2024/01/20 02:48:58;;;;;;;7.93;4.35;;;;;;;-4.03;100.00;99491.75;4484980;31;20790;-75
2024/01/20 02:51:26;;;;;;;14.00;6.43;;;;;;;-4.00;100.00;99501.09;4485162;31;20115;-75
2024/01/20 02:53:53;;;;;;;10.98;4.22;;;;;;;-3.95;100.00;99514.69;4484969;32;20080;-75
2024/01/20 02:56:22;;;;;;;15.07;5.30;;;;;;;-3.93;100.00;99492.44;4485023;31;20096;-75
2024/01/20 02:58:50;;;;;;;6.20;3.08;;;;;;;-3.95;100.00;99512.13;4485153;31;20120;-75
2024/01/20 03:01:18;;;;;;;4.70;3.17;;;;;;;-3.95;100.00;99509.56;4485163;31;20097;-75
2024/01/20 03:03:45;;;;;;;16.45;3.85;;;;;;;-3.94;100.00;99506.13;4485096;31;20218;-75
2024/01/20 03:06:13;;;;;;;11.00;5.45;;;;;;;-3.98;100.00;99525.81;4485036;32;20123;-75
2024/01/20 03:08:40;;;;;;;9.40;3.90;;;;;;;-3.99;100.00;99523.28;4484691;31;20423;-75
2024/01/20 03:11:08;;;;;;;16.67;5.65;;;;;;;-4.06;100.00;99522.53;4485131;31;20088;-75
2024/01/20 03:13:35;;;;;;;13.98;4.25;;;;;;;-4.06;100.00;99526.81;4484980;31;20092;-75
2024/01/20 03:16:03;;;;;;;11.95;4.53;;;;;;;-4.08;100.00;99533.69;4484821;32;20544;-75
2024/01/20 03:18:30;;;;;;;8.05;3.47;;;;;;;-4.11;100.00;99525.16;4490390;31;20164;-75
2024/01/20 03:20:57;;;;;;;8.63;4.15;;;;;;;-4.17;100.00;99529.56;4500662;31;20157;-75
2024/01/20 03:23:27;;;;;;;12.48;5.03;;;;;;;-4.17;100.00;99524.44;4500733;31;20127;-75
2024/01/20 03:25:57;;;;;;;14.55;4.37;;;;;;;-4.20;100.00;99544.97;4500730;31;20381;-75
2024/01/20 03:28:24;;;;;;;13.10;4.82;;;;;;;-4.21;100.00;99533.03;4500188;31;20111;-75
2024/01/20 03:30:51;;;;;;;11.20;5.45;;;;;;;-4.22;100.00;99537.31;4489287;31;20100;-75
2024/01/20 03:33:19;;;;;;;9.52;3.20;;;;;;;-4.25;100.00;99531.38;4484937;31;20128;-75
2024/01/20 03:35:47;;;;;;;10.13;3.90;;;;;;;-4.23;100.00;99545.84;4484714;31;20092;-75
2024/01/20 03:38:15;;;;;;;16.92;4.47;;;;;;;-4.21;100.00;99533.88;4484784;31;20434;-75
2024/01/20 03:40:43;;;;;;;14.32;5.85;;;;;;;-4.20;100.00;99535.56;4484966;31;20092;-75
2024/01/20 03:43:12;;;;;;;13.07;5.07;;;;;;;-4.23;100.00;99550.97;4484820;32;20096;-75
2024/01/20 03:45:40;;;;;;;10.80;5.25;;;;;;;-4.28;100.00;99557.88;4484827;31;20106;-75
2024/01/20 03:48:08;;;;;;;9.13;4.55;;;;;;;-4.31;100.00;99560.50;4484806;31;20157;-75
2024/01/20 03:50:36;;;;;;;6.28;3.80;;;;;;;-4.31;100.00;99557.94;4484476;32;20104;-75
2024/01/20 03:53:03;;;;;;;9.85;4.00;;;;;;;-4.31;100.00;99573.28;4484617;31;20093;-75
2024/01/20 03:55:31;;;;;;;7.03;3.47;;;;;;;-4.31;100.00;99578.38;4483429;32;20406;-75
2024/01/20 03:58:03;;;;;;;9.18;4.10;;;;;;;-4.36;100.00;99582.72;4484582;32;20089;-75
2024/01/20 04:00:31;;;;;;;13.90;5.37;;;;;;;-4.40;100.00;99581.09;4484573;31;20080;-75
2024/01/20 04:02:58;;;;;;;10.00;4.37;;;;;;;-4.48;100.00;99583.75;4484481;31;20104;-75
2024/01/20 04:05:26;;;;;;;9.25;4.12;;;;;;;-4.49;100.00;99576.97;4484643;31;20420;-75
2024/01/20 04:07:53;;;;;;;15.85;5.10;;;;;;;-4.51;100.00;99576.97;4484394;31;20085;-75
2024/01/20 04:10:22;;;;;;;14.07;5.93;;;;;;;-4.52;100.00;99579.56;4484382;31;20131;-75
2024/01/20 04:12:49;;;;;;;10.15;3.40;;;;;;;-4.55;100.00;99585.56;4484395;32;20493;-75
2024/01/20 04:15:17;;;;;;;8.75;5.05;;;;;;;-4.55;100.00;99597.50;4484614;31;20096;-76
2024/01/20 04:17:45;;;;;;;9.02;4.43;;;;;;;-4.56;100.00;99588.97;4485221;31;20081;-75
2024/01/20 04:20:12;;;;;;;19.92;5.32;;;;;;;-4.55;100.00;99594.94;4500210;31;20196;-75
2024/01/20 04:22:39;;;;;;;11.82;4.18;;;;;;;-4.60;100.00;99582.22;4500416;31;20155;-75
2024/01/20 04:25:07;;;;;;;12.10;4.47;;;;;;;-4.57;100.00;99574.50;4499896;31;20103;-75
2024/01/20 04:27:40;;;;;;;12.77;5.53;;;;;;;-4.62;100.00;99578.00;4500207;31;20460;-75
2024/01/20 04:30:10;;;;;;;6.90;3.33;;;;;;;-4.62;100.00;99586.50;4494130;31;20120;-75
2024/01/20 04:32:38;;;;;;;11.98;4.03;;;;;;;-4.58;100.00;99584.75;4484127;31;20513;-75
2024/01/20 04:35:06;;;;;;;9.02;4.32;;;;;;;-4.60;100.00;99592.47;4483896;31;20518;-75
2024/01/20 04:37:34;;;;;;;13.20;5.55;;;;;;;-4.61;100.00;99584.81;4484261;31;20157;-75
2024/01/20 04:40:01;;;;;;;14.98;4.37;;;;;;;-4.62;100.00;99594.16;4484282;32;20567;-75
2024/01/20 04:42:31;;;;;;;18.50;4.28;;;;;;;-4.60;100.00;99600.13;4484777;31;20610;-75
2024/01/20 04:45:03;;;;;;;9.52;5.62;;;;;;;-4.59;100.00;99606.06;4485962;31;20481;-75
2024/01/20 04:47:32;;;;;;;7.43;4.40;;;;;;;-4.68;100.00;99605.34;4486086;32;20160;-75
2024/01/20 04:49:59;;;;;;;9.60;4.93;;;;;;;-4.71;100.00;99614.75;4486032;31;20093;-75
2024/01/20 04:52:26;;;;;;;11.15;4.18;;;;;;;-4.75;100.00;99623.31;4486252;32;20100;-75
2024/01/20 04:54:53;;;;;;;13.40;5.68;;;;;;;-4.75;100.00;99626.75;4485933;31;20586;-75
2024/01/20 04:57:21;;;;;;;13.43;5.95;;;;;;;-4.80;100.00;99625.94;4485944;32;20600;-75
2024/01/20 04:59:48;;;;;;;10.20;4.45;;;;;;;-4.73;100.00;99624.16;4485906;31;20084;-75
2024/01/20 05:02:16;;;;;;;8.40;3.12;;;;;;;-4.73;100.00;99626.72;4485948;32;20092;-75
2024/01/20 05:04:43;;;;;;;10.68;4.15;;;;;;;-4.70;100.00;99622.41;4485939;31;20087;-75
2024/01/20 05:07:11;;;;;;;12.88;4.68;;;;;;;-4.69;100.00;99636.88;4485843;31;20084;-75
2024/01/20 05:09:38;;;;;;;10.10;3.83;;;;;;;-4.65;100.00;99638.53;4485729;31;20157;-75
2024/01/20 05:12:06;;;;;;;13.43;4.37;;;;;;;-4.57;100.00;99637.56;4485910;31;20092;-76
2024/01/20 05:14:34;;;;;;;19.48;5.35;;;;;;;-4.53;100.00;99642.63;4484439;32;20068;-76
2024/01/20 05:17:03;;;;;;;8.48;4.25;;;;;;;-4.52;100.00;99631.53;4485754;31;20104;-75
2024/01/20 05:19:31;;;;;;;19.55;5.53;;;;;;;-4.56;100.00;99629.88;4497834;31;20107;-76
2024/01/20 05:21:58;;;;;;;13.62;5.37;;;;;;;-4.57;100.00;99635.00;4501352;31;20164;-75
2024/01/20 05:24:25;;;;;;;10.90;4.05;;;;;;;-4.56;100.00;99629.03;4501520;31;20219;-75
2024/01/20 05:26:53;;;;;;;19.67;4.85;;;;;;;-4.51;100.00;99628.13;4501445;31;20164;-75
2024/01/20 05:29:21;;;;;;;10.13;4.85;;;;;;;-4.50;100.00;99631.50;4500716;31;20118;-75
2024/01/20 05:31:48;;;;;;;17.90;4.68;;;;;;;-4.47;100.00;99624.66;4485530;31;20476;-75
2024/01/20 05:34:16;;;;;;;12.00;4.22;;;;;;;-4.44;100.00;99625.47;4485528;31;20099;-75
2024/01/20 05:36:45;;;;;;;12.40;4.25;;;;;;;-4.36;100.00;99633.88;4484841;31;20119;-75
2024/01/20 05:39:14;;;;;;;8.85;4.20;;;;;;;-4.41;100.00;99639.06;4484700;31;20144;-76
2024/01/20 05:41:41;;;;;;;10.05;4.25;;;;;;;-4.36;100.00;99646.66;4484699;31;20085;-76
2024/01/20 05:44:09;;;;;;;17.85;4.87;;;;;;;-4.30;100.00;99652.53;4484492;31;20150;-76
2024/01/20 05:46:37;;;;;;;9.52;4.90;;;;;;;-4.36;100.00;99656.88;4484581;31;20096;-75
2024/01/20 05:49:07;;;;;;;16.00;5.15;;;;;;;-4.45;100.00;99663.00;4484759;31;20092;-75
2024/01/20 05:51:39;;;;;;;7.93;4.35;;;;;;;-4.43;100.00;99662.97;4484418;32;20141;-75
2024/01/20 05:54:08;;;;;;;13.23;3.92;;;;;;;-4.43;100.00;99660.41;4484472;31;20122;-75
2024/01/20 05:56:35;;;;;;;12.02;4.55;;;;;;;-4.49;100.00;99651.94;4484438;31;20405;-75
2024/01/20 05:59:03;;;;;;;11.90;4.32;;;;;;;-4.42;100.00;99669.75;4484665;31;20088;-76
2024/01/20 06:01:30;;;;;;;10.90;3.70;;;;;;;-4.45;100.00;99675.78;4484395;32;20088;-75
2024/01/20 06:03:59;;;;;;;8.65;3.35;;;;;;;-4.46;100.00;99677.47;4484694;31;20131;-75
2024/01/20 06:06:27;;;;;;;11.73;6.18;;;;;;;-4.42;100.00;99678.31;4484641;32;20088;-76
2024/01/20 06:08:57;;;;;;;12.13;5.45;;;;;;;-4.41;100.00;99682.53;4484719;31;20462;-75
2024/01/20 06:11:26;;;;;;;9.27;4.32;;;;;;;-4.36;100.00;99690.13;4484271;32;20105;-75
2024/01/20 06:13:53;;;;;;;11.32;4.65;;;;;;;-4.40;100.00;99678.28;4484452;31;20072;-75
2024/01/20 06:16:21;;;;;;;7.97;3.33;;;;;;;-4.35;100.00;99699.50;4484198;31;20093;-75
2024/01/20 06:18:49;;;;;;;14.05;4.18;;;;;;;-4.32;100.00;99695.19;4492292;31;20168;-75
2024/01/20 06:21:24;;;;;;;9.60;3.67;;;;;;;-4.30;100.00;99687.50;4499985;31;20096;-75
2024/01/20 06:23:51;;;;;;;9.10;3.80;;;;;;;-4.28;100.00;99701.13;4500242;31;20118;-75
2024/01/20 06:26:20;;;;;;;12.60;5.95;;;;;;;-4.18;100.00;99719.75;4500246;31;20389;-75
2024/01/20 06:28:50;;;;;;;10.55;5.43;;;;;;;-4.16;100.00;99715.47;4500320;31;20092;-75
2024/01/20 06:31:24;;;;;;;14.82;5.30;;;;;;;-4.16;100.00;99715.47;4486694;31;20481;-75
2024/01/20 06:33:52;;;;;;;14.27;4.28;;;;;;;-4.15;100.00;99715.44;4484432;31;20460;-76
2024/01/20 06:36:21;;;;;;;11.50;5.15;;;;;;;-4.14;100.00;99718.84;4482531;31;74926;-75
2024/01/20 06:38:53;;;;;;;13.93;4.60;;;;;;;-4.13;100.00;99713.69;4485406;31;20503;-75
2024/01/20 06:41:22;;;;;;;12.85;4.75;;;;;;;-4.04;100.00;99719.53;4485162;31;20085;-75
2024/01/20 06:43:51;;;;;;;10.48;5.55;;;;;;;-3.98;100.00;99712.63;4485119;32;20155;-75
2024/01/20 06:46:19;;;;;;;11.85;4.93;;;;;;;-3.97;100.00;99724.53;4485599;31;20591;-75
2024/01/20 06:48:46;;;;;;;8.63;3.83;;;;;;;-3.96;100.00;99722.84;4485133;31;20135;-75
2024/01/20 06:51:16;;;;;;;12.20;5.97;;;;;;;-3.90;100.00;99733.00;4484929;31;20089;-76
2024/01/20 06:53:44;;;;;;;10.43;4.20;;;;;;;-3.89;100.00;99737.25;4485157;32;20578;-76
2024/01/20 06:56:12;;;;;;;7.97;3.87;;;;;;;-3.83;100.00;99742.28;4485092;31;20490;-75
2024/01/20 06:58:39;;;;;;;9.63;5.15;;;;;;;-3.81;100.00;99749.94;4485187;31;20145;-75
2024/01/20 07:01:07;;;;;;;9.57;4.20;;;;;;;-3.71;100.00;99758.31;4484840;31;20462;-75
2024/01/20 07:03:34;;;;;;;11.68;5.40;;;;;;;-3.66;100.00;99767.63;4485084;31;20092;-75
2024/01/20 07:06:02;;;;;;;6.97;4.20;;;;;;;-3.63;100.00;99775.28;4484116;31;20096;-75
2024/01/20 07:08:30;;;;;;;10.38;4.87;;;;;;;-3.54;100.00;99786.22;4484993;31;20568;-75
2024/01/20 07:10:58;;;;;;;13.60;5.30;;;;;;;-3.51;100.00;99796.44;4485250;31;20466;-75
2024/01/20 07:13:28;;;;;;;15.45;5.87;;;;;;;-3.47;100.00;99798.91;4484969;31;20097;-75
2024/01/20 07:15:55;;;;;;;7.62;4.12;;;;;;;-3.46;100.00;99800.63;4485001;31;20446;-76
2024/01/20 07:18:23;;;;;;;12.40;4.60;;;;;;;-3.47;100.00;99793.78;4489960;31;20168;-76
2024/01/20 07:20:51;;;;;;;18.33;5.47;;;;;;;-3.39;100.00;99797.09;4500650;31;20522;-76
2024/01/20 07:23:19;;;;;;;6.05;3.62;;;;;;;-3.33;100.00;99795.31;4500972;31;20092;-76
2024/01/20 07:25:47;;;;;;;15.32;5.90;;;;;;;-3.30;100.00;99824.31;4500731;31;20096;-76
2024/01/20 07:28:14;;;;;;;13.23;4.50;;;;;;;-3.31;100.00;99819.19;4500769;31;20095;-76
2024/01/20 07:30:44;;;;;;;9.95;4.57;;;;;;;-3.34;100.00;99824.38;4490839;31;20119;-75
2024/01/20 07:33:12;;;;;;;6.97;3.72;;;;;;;-3.35;100.00;99817.53;4484593;32;20623;-76
2024/01/20 07:35:39;;;;;;;9.77;4.35;;;;;;;-3.38;100.00;99823.56;4484631;31;20097;-75
2024/01/20 07:38:07;;;;;;;10.48;4.80;;;;;;;-3.37;100.00;99844.91;4484845;31;20147;-75
2024/01/20 07:40:34;;;;;;;8.98;4.85;;;;;;;-3.33;100.00;99851.66;4484776;31;20122;-76
2024/01/20 07:43:03;;;;;;;15.20;4.75;;;;;;;-3.28;100.00;99837.09;4484825;31;20157;-75
2024/01/20 07:45:31;;;;;;;16.20;5.45;;;;;;;-3.37;100.00;99842.34;4484787;31;20093;-76
2024/01/20 07:47:59;;;;;;;9.27;4.15;;;;;;;-3.25;100.00;99843.00;4484760;31;20104;-76
2024/01/20 07:50:27;;;;;;;12.98;5.12;;;;;;;-3.25;100.00;99855.81;4484758;31;20516;-76
2024/01/20 07:52:55;;;;;;;11.75;5.18;;;;;;;-3.19;100.00;99849.75;4483090;32;20175;-76
2024/01/20 07:55:23;;;;;;;10.88;4.57;;;;;;;-3.10;100.00;99859.84;4484729;31;20092;-76
2024/01/20 07:57:51;;;;;;;14.52;4.18;;;;;;;-3.07;100.00;99853.84;4484383;31;20161;-76
2024/01/20 08:00:19;;;;;;;8.73;4.62;;;;;;;-3.01;100.00;99850.31;4484550;32;20111;-76
2024/01/20 08:02:48;;;;;;;13.80;4.90;;;;;;;-2.92;100.00;99858.72;4484480;31;20197;-76
2024/01/20 08:05:17;;;;;;;9.70;3.95;;;;;;;-2.91;100.00;99864.69;4484538;31;20101;-76
2024/01/20 08:07:44;;;;;;;8.15;4.60;;;;;;;-2.83;100.00;99867.12;4484437;31;20092;-76
2024/01/20 08:10:12;;;;;;;9.45;4.10;;;;;;;-2.81;100.00;99876.47;4484406;31;20110;-76
2024/01/20 08:12:41;;;;;;;15.02;4.07;;;;;;;-2.88;100.00;99877.44;4484282;32;20084;-76
2024/01/20 08:15:09;;;;;;;15.38;5.50;;;;;;;-2.80;100.00;99878.19;4484552;31;20096;-76
2024/01/20 08:17:36;;;;;;;10.13;4.57;;;;;;;-2.67;100.00;99881.38;4484141;31;20537;-76
2024/01/20 08:20:06;;;;;;;13.40;6.12;;;;;;;-2.58;100.00;99888.06;4484311;31;20114;-76
2024/01/20 08:22:34;;;;;;;10.02;4.68;;;;;;;-2.58;100.00;99894.03;4484352;31;20203;-76
2024/01/20 08:25:04;;;;;;;16.05;4.60;;;;;;;-2.56;100.00;99891.44;4484306;31;20085;-76
2024/01/20 08:27:32;;;;;;;12.20;4.80;;;;;;;-2.47;100.00;99886.16;4484233;31;20144;-76
2024/01/20 08:30:01;;;;;;;12.05;4.30;;;;;;;-2.24;100.00;99892.59;4489281;31;20155;-76
2024/01/20 08:32:31;;;;;;;13.00;6.15;;;;;;;-2.22;100.00;99893.41;4499796;31;20178;-76
2024/01/20 08:34:58;;;;;;;14.65;6.68;;;;;;;-2.20;100.00;99889.09;4499826;31;20138;-76
2024/01/20 08:37:28;;;;;;;11.18;4.95;;;;;;;-2.05;100.00;99899.06;4499796;31;20088;-76
2024/01/20 08:39:56;;;;;;;15.60;5.23;;;;;;;-2.05;100.00;99909.31;4499852;31;20130;-76
2024/01/20 08:42:26;;;;;;;14.60;5.50;;;;;;;-1.91;100.00;99905.66;4499758;31;20127;-76
2024/01/20 08:44:56;;;;;;;18.70;5.93;;;;;;;-1.89;100.00;99909.87;4499925;31;20116;-76
2024/01/20 08:47:23;;;;;;;14.52;5.07;;;;;;;-1.85;100.00;99915.81;4499780;31;20156;-76
2024/01/20 08:49:52;;;;;;;11.52;5.12;;;;;;;-1.84;100.00;99910.63;4500053;31;20084;-76
2024/01/20 08:52:19;;;;;;;15.18;5.65;;;;;;;-1.68;100.00;99924.03;4499701;31;20122;-76
2024/01/20 08:54:47;;;;;;;13.10;4.90;;;;;;;-1.57;100.00;99910.13;4499529;31;20164;-76
2024/01/20 08:57:15;;;;;;;10.10;4.72;;;;;;;-1.40;100.00;99913.16;4499659;31;20087;-76
2024/01/20 08:59:43;;;;;;;12.40;4.97;;;;;;;-1.38;100.00;99916.53;4499350;31;20159;-76
2024/01/20 09:02:13;;;;;;;15.45;6.57;;;;;;;-1.45;100.00;99920.97;4499796;31;20079;-76
2024/01/20 09:04:40;;;;;;;10.07;5.15;;;;;;;-1.34;100.00;99925.03;4499222;31;20147;-76
2024/01/20 09:07:10;;;;;;;13.73;4.32;;;;;;;-1.39;100.00;99932.84;4499557;31;20092;-76
2024/01/20 09:09:37;;;;;;;9.13;4.65;;;;;;;-1.43;100.00;99928.66;4499412;31;20092;-76
2024/01/20 09:12:06;;;;;;;11.43;5.12;;;;;;;-1.40;100.00;99932.87;4499657;31;20106;-76
2024/01/20 09:14:33;;;;;;;13.25;4.75;;;;;;;-1.27;100.00;99939.44;4499433;31;20088;-76
2024/01/20 09:17:02;;;;;;;10.65;5.05;;;;;;;-1.13;100.00;99931.44;4499599;31;20145;-76
2024/01/20 09:19:29;;;;;;;10.05;5.03;;;;;;;-1.11;100.00;99934.81;4487174;31;20119;-76
2024/01/20 09:21:57;;;;;;;14.27;4.80;;;;;;;-1.13;100.00;99941.72;4483324;31;20096;-76
2024/01/20 09:24:25;;;;;;;7.82;4.28;;;;;;;-1.15;100.00;99940.87;4483536;32;20085;-76
2024/01/20 09:26:52;;;;;;;8.95;4.80;;;;;;;-1.09;100.00;99940.75;4483551;31;20096;-76
2024/01/20 09:29:25;;;;;;;10.00;5.12;;;;;;;-0.98;100.00;99938.78;4484900;31;20135;-76
2024/01/20 09:31:53;;;;;;;14.73;4.45;;;;;;;-0.93;100.00;99938.69;4501432;31;20102;-76
2024/01/20 09:34:20;;;;;;;11.98;5.07;;;;;;;-1.00;100.00;99945.72;4501344;31;20155;-74
2024/01/20 09:36:50;;;;;;;10.45;4.97;;;;;;;-0.86;100.00;99954.81;4501610;31;20084;-76
2024/01/20 09:39:19;;;;;;;10.85;4.50;;;;;;;-0.98;100.00;99955.97;4501514;31;20163;-76
2024/01/20 09:41:47;;;;;;;13.20;4.40;;;;;;;-0.97;100.00;99950.78;4501619;31;20110;-76
2024/01/20 09:44:16;;;;;;;9.63;5.05;;;;;;;-0.88;100.00;99952.25;4501406;31;20545;-75
2024/01/20 09:46:44;;;;;;;8.25;4.62;;;;;;;-0.81;100.00;99958.97;4501504;31;20152;-75
2024/01/20 09:49:12;;;;;;;14.95;5.60;;;;;;;-0.93;100.00;99954.94;4500195;31;20099;-75
2024/01/20 09:51:45;;;;;;;13.02;4.95;;;;;;;-1.11;100.00;99945.09;4500028;31;20606;-75
2024/01/20 09:54:14;;;;;;;15.93;4.85;;;;;;;-0.84;100.00;99947.91;4499833;31;20441;-76
2024/01/20 09:56:43;;;;;;;10.65;5.03;;;;;;;-0.76;100.00;99938.28;4501529;31;20143;-75
2024/01/20 09:59:17;;;;;;;12.43;5.95;;;;;;;-0.51;100.00;99935.13;4501310;31;20522;-75
2024/01/20 10:01:45;;;;;;;12.40;5.12;;;;;;;-0.70;100.00;99929.56;4499955;31;20088;-75
2024/01/20 10:04:21;;;;;;;13.10;5.25;;;;;;;-0.57;100.00;99936.12;4499949;31;20152;-75
2024/01/20 10:06:51;;;;;;;11.63;4.80;;;;;;;-0.61;100.00;99929.34;4501133;31;20107;-75
2024/01/20 10:09:19;;;;;;;10.57;4.70;;;;;;;-0.53;100.00;99937.69;4501266;31;20227;-75
2024/01/20 10:11:48;;;;;;;12.98;4.95;;;;;;;-0.40;100.00;99943.41;4501103;31;20084;-75
2024/01/20 10:14:16;;;;;;;13.25;4.62;;;;;;;-0.51;100.00;99943.69;4501245;31;20398;-75
2024/01/20 10:16:43;;;;;;;9.48;5.10;;;;;;;-0.54;100.00;99939.44;4501284;31;20105;-75
2024/01/20 10:19:11;;;;;;;14.68;4.85;;;;;;;-0.49;100.00;99936.75;4490708;31;20085;-75
2024/01/20 10:21:40;;;;;;;10.82;5.10;;;;;;;-0.39;100.00;99925.34;4485150;31;20101;-75
2024/01/20 10:24:11;;;;;;;11.80;5.20;;;;;;;-0.23;100.00;99936.09;4485266;32;20130;-75
2024/01/20 10:26:42;;;;;;;10.48;4.85;;;;;;;-0.12;100.00;99937.53;4485503;32;20104;-75
2024/01/20 10:29:10;;;;;;;10.55;4.93;;;;;;;0.07;100.00;99933.56;4485244;31;20084;-75
2024/01/20 10:31:37;;;;;;;13.70;4.85;;;;;;;0.13;100.00;99930.84;4500724;31;20103;-75
2024/01/20 10:34:05;;;;;;;12.50;4.37;;;;;;;0.09;100.00;99926.66;4501293;31;20176;-75
2024/01/20 10:36:33;;;;;;;15.15;5.65;;;;;;;0.21;100.00;99937.50;4500789;31;20127;-75
2024/01/20 10:39:04;;;;;;;10.85;4.43;;;;;;;0.15;100.00;99935.94;4500781;31;20092;-75
2024/01/20 10:41:34;;;;;;;11.68;3.90;;;;;;;0.17;100.00;99937.59;4500118;31;20099;-75
2024/01/20 10:44:03;;;;;;;17.58;5.47;;;;;;;0.28;100.00;99931.31;4500934;31;20103;-75
2024/01/20 10:46:33;;;;;;;10.93;5.25;;;;;;;0.11;100.00;99934.34;4499855;31;20108;-75
2024/01/20 10:49:04;;;;;;;12.32;4.90;;;;;;;0.06;100.00;99931.91;4499619;31;20084;-75
2024/01/20 10:51:33;;;;;;;18.05;5.20;;;;;;;0.13;100.00;99933.41;4499667;31;20153;-75
2024/01/20 10:54:01;;;;;;;9.77;3.92;;;;;;;0.22;100.00;99936.62;4500651;31;20092;-74
2024/01/20 10:56:29;;;;;;;13.85;5.70;;;;;;;0.11;100.00;99927.47;4499468;31;20107;-74
2024/01/20 10:59:10;;;;;;;14.75;5.57;;;;;;;0.08;100.00;99924.97;4500964;31;20110;-75
2024/01/20 11:01:40;;;;;;;13.32;4.82;;;;;;;-0.03;100.00;99922.69;4499576;31;20452;-75
2024/01/20 11:04:10;;;;;;;12.50;4.62;;;;;;;0.14;100.00;99924.81;4497385;31;20119;-75
2024/01/20 11:06:37;;;;;;;14.57;5.32;;;;;;;0.20;100.00;99934.09;4499532;31;20567;-75
2024/01/20 11:09:05;;;;;;;9.77;4.43;;;;;;;0.17;100.00;99926.47;4500468;31;20426;-75
2024/01/20 11:11:35;;;;;;;8.35;3.45;;;;;;;0.14;100.00;99934.28;4501013;31;20505;-75
2024/01/20 11:14:04;;;;;;;11.88;4.70;;;;;;;0.10;100.00;99930.91;4500936;31;20092;-75
2024/01/20 11:16:32;;;;;;;7.72;3.67;;;;;;;0.32;100.00;99941.47;4500639;31;20137;-75
2024/01/20 11:19:08;;;;;;;10.40;4.22;;;;;;;0.49;100.00;99933.25;4501002;31;20088;-75
2024/01/20 11:21:36;;;;;;;13.55;4.93;;;;;;;0.51;100.00;99946.94;4500629;31;20459;-75
2024/01/20 11:24:04;;;;;;;18.08;4.85;;;;;;;0.46;100.00;99941.09;4500649;31;20118;-75
2024/01/20 11:26:35;;;;;;;10.60;3.53;;;;;;;0.46;100.00;99930.78;4500833;31;20130;-75